createdAt,value
2022-09-26T00:01:32.149Z,75.15
2022-09-26T00:04:02.636Z,75.82
2022-09-26T00:06:30.012Z,75.03
2022-09-26T00:08:57.237Z,74.49
2022-09-26T00:11:31.138Z,75.58
2022-09-26T00:14:01.837Z,75.42
2022-09-26T00:16:29.257Z,74.77
2022-09-26T00:18:59.128Z,75.11
2022-09-26T00:21:28.597Z,75.32
2022-09-26T00:23:56.586Z,74.85
2022-09-26T00:26:25.474Z,75.07
2022-09-26T00:28:53.074Z,75.13
2022-09-26T00:31:26.999Z,75.02
2022-09-26T00:33:54.240Z,75.38
2022-09-26T00:36:26.876Z,75.17
2022-09-26T00:39:04.252Z,75.47
2022-09-26T00:41:31.552Z,75.92
2022-09-26T00:43:58.739Z,75.40
2022-09-26T00:46:37.691Z,75.31
2022-09-26T00:49:46.206Z,75.57
2022-09-26T00:52:22.303Z,75.33
2022-09-26T00:54:54.570Z,75.28
2022-09-26T00:57:35.966Z,74.99
2022-09-26T01:00:08.732Z,75.40
2022-09-26T01:02:36.059Z,75.22
2022-09-26T01:05:06.470Z,74.92
2022-09-26T01:07:34.582Z,74.88
2022-09-26T01:10:03.991Z,75.06
2022-09-26T01:12:32.232Z,74.88
2022-09-26T01:14:59.943Z,74.97
2022-09-26T01:17:27.849Z,74.72
2022-09-26T01:20:21.261Z,74.48
2022-09-26T01:22:59.409Z,75.52
2022-09-26T01:25:56.080Z,74.90
2022-09-26T01:28:45.378Z,75.06
2022-09-26T01:31:40.069Z,75.29
2022-09-26T01:34:35.695Z,75.01
2022-09-26T01:37:10.229Z,75.19
2022-09-26T01:40:06.338Z,75.39
2022-09-26T01:42:40.470Z,74.95
2022-09-26T01:45:18.115Z,75.65
2022-09-26T01:48:10.246Z,75.47
2022-09-26T01:50:39.583Z,75.07
2022-09-26T01:53:16.490Z,75.54
2022-09-26T01:55:59.672Z,75.75
2022-09-26T01:59:07.488Z,75.76
2022-09-26T02:01:40.873Z,76.04
2022-09-26T02:04:17.739Z,75.39
2022-09-26T02:07:11.976Z,75.65
2022-09-26T02:10:03.850Z,75.88
2022-09-26T02:12:36.767Z,76.47
2022-09-26T02:15:09.492Z,76.99
2022-09-26T02:17:41.958Z,77.37
2022-09-26T02:20:29.261Z,76.83
2022-09-26T02:22:58.592Z,77.47
2022-09-26T02:25:28.513Z,77.30
2022-09-26T02:27:55.874Z,77.49
2022-09-26T02:30:23.214Z,77.61
2022-09-26T02:32:50.348Z,77.82
2022-09-26T02:35:36.730Z,78.01
2022-09-26T02:38:06.502Z,78.19
2022-09-26T02:40:51.896Z,78.58
2022-09-26T02:43:49.710Z,78.42
2022-09-26T02:46:41.282Z,78.37
2022-09-26T02:49:32.503Z,78.78
2022-09-26T02:52:31.675Z,78.65
2022-09-26T02:55:21.988Z,79.03
2022-09-26T02:57:54.943Z,78.95
2022-09-26T03:00:31.898Z,79.24
2022-09-26T03:03:14.670Z,79.26
2022-09-26T03:05:46.352Z,79.28
2022-09-26T03:08:26.603Z,79.53
2022-09-26T03:10:57.279Z,79.18
2022-09-26T03:13:27.053Z,79.38
2022-09-26T03:15:58.818Z,79.45
2022-09-26T03:18:35.622Z,79.56
2022-09-26T03:21:03.176Z,79.82
2022-09-26T03:23:30.588Z,79.67
2022-09-26T03:26:08.703Z,79.72
2022-09-26T03:28:38.060Z,79.85
2022-09-26T03:31:05.877Z,79.99
2022-09-26T03:33:44.129Z,80.02
2022-09-26T03:36:11.332Z,80.09
2022-09-26T03:38:38.904Z,80.09
2022-09-26T03:41:21.181Z,79.90
2022-09-26T03:44:07.061Z,80.09
2022-09-26T03:46:54.419Z,80.54
2022-09-26T03:49:22.389Z,80.25
2022-09-26T03:51:49.451Z,80.54
2022-09-26T03:54:16.855Z,80.17
2022-09-26T03:56:44.019Z,79.71
2022-09-26T03:59:11.566Z,80.55
2022-09-26T04:01:39.318Z,80.40
2022-09-26T04:04:06.926Z,81.35
2022-09-26T04:06:34.161Z,80.91
2022-09-26T04:09:02.189Z,80.63
2022-09-26T04:11:30.863Z,80.88
2022-09-26T04:13:57.907Z,81.24
2022-09-26T04:16:29.816Z,81.55
2022-09-26T04:19:03.635Z,81.13
2022-09-26T04:21:31.313Z,81.21
2022-09-26T04:23:59.493Z,81.48
2022-09-26T04:26:26.922Z,81.22
2022-09-26T04:28:56.812Z,81.55
2022-09-26T04:31:36.748Z,81.15
2022-09-26T04:34:11.689Z,81.52
2022-09-26T04:36:40.143Z,81.36
2022-09-26T04:39:07.486Z,81.10
2022-09-26T04:41:35.736Z,81.20
2022-09-26T04:44:02.900Z,80.97
2022-09-26T04:46:31.712Z,81.44
2022-09-26T04:49:01.317Z,81.27
2022-09-26T04:51:31.700Z,81.09
2022-09-26T04:53:59.610Z,81.38
2022-09-26T04:56:29.839Z,81.88
2022-09-26T04:58:58.531Z,81.52
2022-09-26T05:01:30.318Z,81.96
2022-09-26T05:04:08.370Z,81.82
2022-09-26T05:06:35.911Z,81.89
2022-09-26T05:09:06.190Z,81.88
2022-09-26T05:12:08.922Z,81.90
2022-09-26T05:14:38.207Z,81.50
2022-09-26T05:17:05.356Z,82.17
2022-09-26T05:19:33.081Z,81.94
2022-09-26T05:22:19.115Z,82.43
2022-09-26T05:25:04.941Z,82.23
2022-09-26T05:27:32.156Z,81.99
2022-09-26T05:29:59.851Z,82.16
2022-09-26T05:32:29.295Z,82.29
2022-09-26T05:34:57.816Z,82.65
2022-09-26T05:37:27.119Z,82.46
2022-09-26T05:40:12.832Z,82.51
2022-09-26T05:42:45.200Z,82.22
2022-09-26T05:45:15.271Z,82.23
2022-09-26T05:47:43.262Z,82.39
2022-09-26T05:50:11.073Z,82.32
2022-09-26T05:52:40.174Z,82.55
2022-09-26T05:55:12.068Z,82.56
2022-09-26T05:58:02.453Z,82.48
2022-09-26T06:00:52.537Z,82.57
2022-09-26T06:03:20.155Z,82.54
2022-09-26T06:06:03.763Z,82.92
2022-09-26T06:08:33.160Z,82.65
2022-09-26T06:11:31.099Z,82.51
2022-09-26T06:14:02.071Z,82.38
2022-09-26T06:16:29.806Z,82.20
2022-09-26T06:18:57.130Z,82.64
2022-09-26T06:21:24.340Z,82.81
2022-09-26T06:23:59.653Z,82.01
2022-09-26T06:26:29.352Z,82.29
2022-09-26T06:29:00.038Z,82.58
2022-09-26T06:31:30.453Z,82.16
2022-09-26T06:34:09.361Z,82.30
2022-09-26T06:36:51.211Z,82.41
2022-09-26T06:39:18.337Z,82.85
2022-09-26T06:41:46.941Z,82.68
2022-09-26T06:44:34.397Z,82.27
2022-09-26T06:47:29.514Z,82.17
2022-09-26T06:50:16.266Z,82.92
2022-09-26T06:52:48.946Z,82.07
2022-09-26T06:55:16.232Z,82.33
2022-09-26T06:57:44.629Z,81.91
2022-09-26T07:00:16.109Z,81.94
2022-09-26T07:03:16.219Z,82.30
2022-09-26T07:05:49.587Z,81.74
2022-09-26T07:08:17.154Z,81.58
2022-09-26T07:10:44.500Z,81.45
2022-09-26T07:13:18.170Z,81.21
2022-09-26T07:15:46.960Z,80.98
2022-09-26T07:18:28.799Z,81.42
2022-09-26T07:21:15.634Z,80.96
2022-09-26T07:24:03.375Z,80.98
2022-09-26T07:26:31.548Z,80.83
2022-09-26T07:28:58.659Z,80.81
2022-09-26T07:31:28.072Z,80.79
2022-09-26T07:34:08.894Z,80.03
2022-09-26T07:36:39.913Z,80.28
2022-09-26T07:39:08.411Z,79.89
2022-09-26T07:41:35.472Z,80.11
2022-09-26T07:47:08.859Z,79.59
2022-09-26T07:49:54.453Z,79.38
2022-09-26T07:52:47.353Z,79.03
2022-09-26T07:55:24.972Z,78.86
2022-09-26T07:57:52.328Z,78.37
2022-09-26T08:00:40.522Z,77.95
2022-09-26T08:03:19.712Z,77.47
2022-09-26T08:05:47.608Z,77.13
2022-09-26T08:08:15.519Z,76.83
2022-09-26T08:11:04.044Z,77.00
2022-09-26T08:13:55.488Z,77.12
2022-09-26T08:16:41.876Z,77.19
2022-09-26T08:19:17.705Z,77.45
2022-09-26T08:21:46.994Z,77.69
2022-09-26T08:24:14.135Z,77.75
2022-09-26T08:27:01.489Z,77.85
2022-09-26T08:29:32.751Z,77.14
2022-09-26T08:32:02.384Z,77.57
2022-09-26T08:34:32.180Z,77.67
2022-09-26T08:37:21.277Z,77.20
2022-09-26T08:40:07.515Z,77.25
2022-09-26T08:43:30.103Z,76.57
2022-09-26T08:46:57.358Z,75.85
2022-09-26T08:49:56.090Z,74.97
2022-09-26T08:52:29.813Z,74.35
2022-09-26T08:55:00.020Z,74.53
2022-09-26T08:58:07.552Z,74.82
2022-09-26T09:00:38.365Z,74.05
2022-09-26T09:03:32.478Z,73.90
2022-09-26T09:06:04.342Z,72.99
2022-09-26T09:08:45.978Z,72.51
2022-09-26T09:12:02.097Z,71.72
2022-09-26T09:14:38.464Z,71.55
2022-09-26T09:17:55.773Z,70.06
2022-09-26T09:20:35.228Z,70.37
2022-09-26T09:24:07.629Z,69.60
2022-09-26T09:29:30.886Z,69.30
2022-09-26T09:32:22.399Z,68.78
2022-09-26T09:35:02.972Z,67.93
2022-09-26T09:37:52.731Z,67.64
2022-09-26T09:40:46.869Z,67.46
2022-09-26T09:43:27.968Z,67.03
2022-09-26T09:46:03.658Z,67.34
2022-09-26T09:48:31.152Z,67.40
2022-09-26T09:51:21.313Z,67.74
2022-09-26T09:53:51.932Z,67.89
2022-09-26T09:56:19.007Z,67.75
2022-09-26T09:59:07.432Z,67.65
2022-09-26T10:01:58.610Z,67.74
2022-09-26T10:04:44.557Z,67.88
2022-09-26T10:07:13.038Z,67.47
2022-09-26T10:09:46.418Z,67.65
2022-09-26T10:12:35.261Z,67.61
2022-09-26T10:15:28.292Z,68.37
2022-09-26T10:18:26.866Z,68.75
2022-09-26T10:21:18.026Z,69.17
2022-09-26T10:23:50.656Z,69.73
2022-09-26T10:26:37.233Z,69.34
2022-09-26T10:29:23.819Z,69.02
2022-09-26T10:32:00.677Z,68.84
2022-09-26T10:34:34.596Z,69.46
2022-09-26T10:37:24.621Z,69.65
2022-09-26T10:40:21.223Z,69.40
2022-09-26T10:42:48.510Z,68.64
2022-09-26T10:45:20.500Z,69.38
2022-09-26T10:47:59.523Z,69.16
2022-09-26T10:51:00.713Z,68.65
2022-09-26T10:53:38.800Z,68.79
2022-09-26T10:56:11.433Z,68.88
2022-09-26T10:58:42.670Z,68.92
2022-09-26T11:01:31.514Z,69.09
2022-09-26T11:04:42.800Z,69.39
2022-09-26T11:07:36.216Z,68.90
2022-09-26T11:10:36.396Z,68.67
2022-09-26T11:13:23.702Z,69.60
2022-09-26T11:16:11.045Z,68.62
2022-09-26T11:18:43.314Z,69.59
2022-09-26T11:21:29.680Z,68.76
2022-09-26T11:24:05.250Z,69.04
2022-09-26T11:26:41.625Z,68.22
2022-09-26T11:29:25.211Z,67.12
2022-09-26T11:32:06.287Z,66.84
2022-09-26T11:34:54.603Z,67.53
2022-09-26T11:38:05.760Z,68.11
2022-09-26T11:40:37.577Z,68.50
2022-09-26T11:43:45.191Z,69.36
2022-09-26T11:46:47.626Z,69.53
2022-09-26T11:49:41.856Z,68.56
2022-09-26T11:52:40.195Z,68.97
2022-09-26T11:55:24.493Z,69.76
2022-09-26T11:58:14.980Z,68.97
2022-09-26T12:00:51.470Z,69.06
2022-09-26T12:03:33.577Z,68.57
2022-09-26T12:06:21.342Z,69.03
2022-09-26T12:09:10.181Z,68.56
2022-09-26T12:11:53.541Z,68.63
2022-09-26T12:14:48.531Z,68.65
2022-09-26T12:17:25.606Z,68.84
2022-09-26T12:20:31.146Z,67.65
2022-09-26T12:23:18.370Z,67.96
2022-09-26T12:26:01.020Z,68.26
2022-09-26T12:28:58.889Z,68.02
2022-09-26T12:31:42.158Z,68.39
2022-09-26T12:34:15.575Z,68.36
2022-09-26T12:36:59.487Z,69.10
2022-09-26T12:40:10.408Z,68.70
2022-09-26T12:43:15.299Z,68.57
2022-09-26T12:46:35.261Z,67.37
2022-09-26T12:49:31.024Z,66.26
2022-09-26T12:52:11.508Z,66.59
2022-09-26T12:54:48.603Z,65.98
2022-09-26T12:57:43.279Z,65.93
2022-09-26T13:00:23.363Z,65.93
2022-09-26T13:02:51.360Z,65.96
2022-09-26T13:05:37.193Z,65.84
2022-09-26T13:08:27.569Z,65.39
2022-09-26T13:11:06.300Z,65.66
2022-09-26T13:13:36.393Z,65.52
2022-09-26T13:16:17.368Z,65.04
2022-09-26T13:18:49.572Z,65.93
2022-09-26T13:21:24.935Z,64.44
2022-09-26T13:24:01.216Z,63.41
2022-09-26T13:26:45.365Z,62.73
2022-09-26T13:29:27.962Z,62.85
2022-09-26T13:32:00.537Z,62.41
2022-09-26T13:34:53.514Z,62.28
2022-09-26T13:37:42.671Z,62.62
2022-09-26T13:40:35.960Z,63.13
2022-09-26T13:43:14.533Z,63.31
2022-09-26T13:45:44.395Z,62.90
2022-09-26T13:48:24.549Z,62.75
2022-09-26T13:50:56.191Z,62.31
2022-09-26T13:53:34.949Z,62.83
2022-09-26T13:56:36.322Z,63.27
2022-09-26T13:59:34.542Z,64.12
2022-09-26T14:02:25.080Z,64.63
2022-09-26T14:05:13.853Z,64.60
2022-09-26T14:07:59.415Z,65.84
2022-09-26T14:10:34.669Z,66.95
2022-09-26T14:13:06.810Z,67.22
2022-09-26T14:15:49.189Z,68.35
2022-09-26T14:18:56.223Z,69.08
2022-09-26T14:21:37.443Z,67.58
2022-09-26T14:24:31.629Z,67.90
2022-09-26T14:27:04.776Z,67.78
2022-09-26T14:29:46.822Z,68.35
2022-09-26T14:32:20.985Z,69.02
2022-09-26T14:34:56.348Z,68.49
2022-09-26T14:37:26.554Z,68.49
2022-09-26T14:39:54.049Z,67.67
2022-09-26T14:42:28.965Z,67.12
2022-09-26T14:45:03.629Z,67.46
2022-09-26T14:47:48.690Z,67.16
2022-09-26T14:50:25.171Z,66.82
2022-09-26T14:53:00.409Z,66.39
2022-09-26T14:55:30.394Z,66.01
2022-09-26T14:58:32.031Z,64.86
2022-09-26T15:01:04.769Z,65.23
2022-09-26T15:03:34.802Z,64.35
2022-09-26T15:06:05.450Z,64.59
2022-09-26T15:08:39.208Z,65.42
2022-09-26T15:11:07.392Z,65.84
2022-09-26T15:13:45.435Z,65.64
2022-09-26T15:16:27.348Z,65.45
2022-09-26T15:19:03.309Z,65.07
2022-09-26T15:21:33.090Z,65.86
2022-09-26T15:24:04.727Z,66.02
2022-09-26T15:26:37.132Z,66.01
2022-09-26T15:29:06.903Z,67.72
2022-09-26T15:31:44.786Z,69.16
2022-09-26T15:34:17.904Z,69.50
2022-09-26T15:36:48.862Z,69.57
2022-09-26T15:39:31.365Z,70.48
2022-09-26T15:42:31.960Z,70.00
2022-09-26T15:45:00.180Z,70.66
2022-09-26T15:47:42.247Z,70.31
2022-09-26T15:50:28.269Z,70.30
2022-09-26T15:53:15.290Z,70.58
2022-09-26T15:55:54.614Z,70.56
2022-09-26T15:58:33.955Z,71.25
2022-09-26T16:01:01.700Z,71.63
2022-09-26T16:03:58.060Z,70.90
2022-09-26T16:06:27.439Z,70.41
2022-09-26T16:09:19.063Z,69.57
2022-09-26T16:11:51.123Z,69.25
2022-09-26T16:14:27.027Z,68.82
2022-09-26T16:17:03.691Z,69.11
2022-09-26T16:19:36.535Z,69.18
2022-09-26T16:22:36.538Z,68.52
2022-09-26T16:25:35.255Z,68.97
2022-09-26T16:28:20.914Z,69.29
2022-09-26T16:31:04.044Z,70.21
2022-09-26T16:33:37.724Z,70.04
2022-09-26T16:36:21.681Z,68.65
2022-09-26T16:38:54.291Z,68.23
2022-09-26T16:42:00.093Z,68.76
2022-09-26T16:44:26.249Z,69.08
2022-09-26T16:46:56.173Z,69.75
2022-09-26T16:49:52.533Z,70.42
2022-09-26T16:52:22.242Z,70.54
2022-09-26T16:54:51.599Z,70.13
2022-09-26T16:57:25.053Z,70.04
2022-09-26T16:59:53.486Z,70.32
2022-09-26T17:02:26.580Z,70.91
2022-09-26T17:04:54.371Z,71.13
2022-09-26T17:07:23.091Z,71.35
2022-09-26T17:09:50.242Z,72.04
2022-09-26T17:12:20.151Z,71.86
2022-09-26T17:14:52.361Z,71.64
2022-09-26T17:17:25.491Z,72.29
2022-09-26T17:19:59.655Z,72.80
2022-09-26T17:22:27.826Z,73.07
2022-09-26T17:24:55.500Z,73.04
2022-09-26T17:27:27.374Z,73.84
2022-09-26T17:30:05.294Z,74.60
2022-09-26T17:32:44.415Z,75.02
2022-09-26T17:35:16.917Z,74.45
2022-09-26T17:37:44.091Z,74.73
2022-09-26T17:40:20.980Z,74.49
2022-09-26T17:42:48.290Z,74.86
2022-09-26T17:45:15.445Z,74.78
2022-09-26T17:47:42.651Z,74.31
2022-09-26T17:50:21.885Z,74.34
2022-09-26T17:52:49.313Z,74.46
2022-09-26T17:55:16.883Z,74.81
2022-09-26T17:57:44.158Z,74.55
2022-09-26T18:00:15.881Z,74.98
2022-09-26T18:02:46.248Z,74.20
2022-09-26T18:05:23.514Z,74.30
2022-09-26T18:07:53.554Z,74.84
2022-09-26T18:10:24.784Z,75.16
2022-09-26T18:12:58.671Z,75.18
2022-09-26T18:15:27.581Z,75.32
2022-09-26T18:17:54.833Z,75.12
2022-09-26T18:20:27.595Z,75.53
2022-09-26T18:22:54.845Z,75.24
2022-09-26T18:25:25.286Z,75.66
2022-09-26T18:27:54.318Z,76.11
2022-09-26T18:30:22.676Z,76.03
2022-09-26T18:32:54.101Z,76.15
2022-09-26T18:35:27.925Z,75.75
2022-09-26T18:37:56.301Z,76.48
2022-09-26T18:40:26.039Z,76.68
2022-09-26T18:42:55.016Z,76.38
2022-09-26T18:45:33.043Z,76.73
2022-09-26T18:48:00.244Z,76.98
2022-09-26T18:50:39.171Z,77.34
2022-09-26T18:53:18.761Z,77.41
2022-09-26T18:56:04.398Z,77.60
2022-09-26T18:58:32.590Z,77.40
2022-09-26T19:01:07.197Z,77.69
2022-09-26T19:03:38.170Z,77.80
2022-09-26T19:06:12.958Z,78.25
2022-09-26T19:08:49.897Z,78.08
2022-09-26T19:11:22.404Z,78.98
2022-09-26T19:13:52.453Z,79.18
2022-09-26T19:16:20.302Z,79.25
2022-09-26T19:18:48.524Z,78.92
2022-09-26T19:21:33.441Z,79.03
2022-09-26T19:24:05.796Z,79.43
2022-09-26T19:26:39.129Z,79.81
2022-09-26T19:29:12.174Z,79.40
2022-09-26T19:31:41.079Z,79.26
2022-09-26T19:34:15.067Z,79.45
2022-09-26T19:36:42.479Z,79.32
2022-09-26T19:39:16.604Z,80.34
2022-09-26T19:41:43.761Z,80.42
2022-09-26T19:44:10.880Z,80.00
2022-09-26T19:46:39.243Z,80.12
2022-09-26T19:49:08.070Z,80.57
2022-09-26T19:51:39.923Z,80.92
2022-09-26T19:54:10.112Z,80.29
2022-09-26T19:56:37.345Z,80.40
2022-09-26T19:59:04.531Z,80.29
2022-09-26T20:01:31.923Z,80.65
2022-09-26T20:03:59.285Z,80.85
2022-09-26T20:06:26.499Z,81.66
2022-09-26T20:09:01.787Z,81.64
2022-09-26T20:11:29.212Z,80.82
2022-09-26T20:14:14.821Z,81.11
2022-09-26T20:16:42.799Z,80.40
2022-09-26T20:19:16.632Z,80.74
2022-09-26T20:21:45.009Z,80.67
2022-09-26T20:24:20.009Z,81.68
2022-09-26T20:26:48.372Z,81.94
2022-09-26T20:29:16.804Z,82.09
2022-09-26T20:31:43.998Z,82.21
2022-09-26T20:34:11.750Z,82.01
2022-09-26T20:36:46.806Z,82.40
2022-09-26T20:39:18.482Z,82.51
2022-09-26T20:41:45.818Z,82.07
2022-09-26T20:44:19.200Z,82.53
2022-09-26T20:46:50.289Z,82.76
2022-09-26T20:49:26.206Z,82.24
2022-09-26T20:51:53.888Z,82.45
2022-09-26T20:54:32.680Z,82.89
2022-09-26T20:57:01.512Z,82.07
2022-09-26T20:59:29.493Z,82.62
2022-09-26T21:01:58.058Z,82.52
2022-09-26T21:04:31.815Z,82.89
2022-09-26T21:06:59.075Z,83.08
2022-09-26T21:09:26.240Z,83.19
2022-09-26T21:11:53.459Z,83.09
2022-09-26T21:14:20.640Z,83.40
2022-09-26T21:16:52.636Z,83.22
2022-09-26T21:19:22.960Z,83.16
2022-09-26T21:22:01.195Z,82.97
2022-09-26T21:24:49.398Z,82.81
2022-09-26T21:27:16.603Z,83.00
2022-09-26T21:29:43.890Z,83.02
2022-09-26T21:32:18.049Z,83.17
2022-09-26T21:35:02.411Z,83.28
2022-09-26T21:37:30.572Z,83.55
2022-09-26T21:39:58.131Z,83.60
2022-09-26T21:42:26.535Z,83.61
2022-09-26T21:44:59.659Z,83.34
2022-09-26T21:47:27.364Z,83.73
2022-09-26T21:49:54.747Z,83.54
2022-09-26T21:52:29.569Z,83.48
2022-09-26T21:55:00.174Z,83.42
2022-09-26T21:57:34.221Z,83.95
2022-09-26T22:00:05.000Z,84.14
2022-09-26T22:02:41.967Z,83.79
2022-09-26T22:05:10.477Z,83.67
2022-09-26T22:07:38.673Z,83.90
2022-09-26T22:10:06.925Z,83.96
2022-09-26T22:12:34.520Z,83.96
2022-09-26T22:15:01.687Z,84.51
2022-09-26T22:17:28.835Z,84.65
2022-09-26T22:19:55.969Z,84.39
2022-09-26T22:22:23.225Z,84.42
2022-09-26T22:24:50.450Z,84.48
2022-09-26T22:27:17.620Z,84.63
2022-09-26T22:29:44.762Z,84.05
2022-09-26T22:32:11.960Z,84.47
2022-09-26T22:34:39.199Z,84.51
2022-09-26T22:37:06.279Z,84.75
2022-09-26T22:39:33.325Z,85.10
2022-09-26T22:42:00.569Z,85.48
2022-09-26T22:44:27.724Z,85.17
2022-09-26T22:46:54.964Z,85.43
2022-09-26T22:49:22.005Z,85.30
2022-09-26T22:51:49.209Z,85.39
2022-09-26T22:54:16.560Z,85.52
2022-09-26T22:56:43.669Z,85.10
2022-09-26T22:59:11.009Z,84.86
2022-09-26T23:01:38.524Z,85.18
2022-09-26T23:04:05.759Z,84.96
2022-09-26T23:06:33.161Z,84.65
2022-09-26T23:09:00.319Z,84.81
2022-09-26T23:11:28.161Z,84.05
2022-09-26T23:13:55.450Z,84.79
2022-09-26T23:16:26.096Z,84.99
2022-09-26T23:18:54.365Z,84.97
2022-09-26T23:21:24.524Z,84.97
2022-09-26T23:23:55.129Z,84.68
2022-09-26T23:26:27.885Z,84.79
2022-09-26T23:28:56.848Z,84.74
2022-09-26T23:31:25.311Z,85.26
2022-09-26T23:33:53.636Z,85.34
2022-09-26T23:36:21.159Z,85.52
2022-09-26T23:38:48.353Z,85.77
2022-09-26T23:41:15.889Z,85.45
2022-09-26T23:43:43.973Z,85.83
2022-09-26T23:46:11.410Z,86.56
2022-09-26T23:48:39.529Z,86.40
2022-09-26T23:51:07.022Z,86.37
2022-09-26T23:53:34.646Z,86.37
2022-09-26T23:56:10.355Z,86.76
2022-09-26T23:58:37.849Z,86.88
